createdAt,value
2018-09-29T00:00:18.999Z,98.90
2018-09-29T00:02:47.190Z,98.80
2018-09-29T00:05:15.334Z,98.70
2018-09-29T00:07:43.467Z,98.90
2018-09-29T00:10:11.656Z,98.40
2018-09-29T00:12:39.737Z,97.60
2018-09-29T00:15:08.351Z,97.80
2018-09-29T00:17:36.491Z,97.30
2018-09-29T00:20:04.641Z,97.40
2018-09-29T00:22:32.770Z,96.90
2018-09-29T00:25:00.913Z,96.80
2018-09-29T00:27:29.046Z,96.70
2018-09-29T00:29:57.178Z,96.50
2018-09-29T00:32:25.309Z,96.30
2018-09-29T00:34:53.450Z,96.20
2018-09-29T00:37:21.613Z,95.80
2018-09-29T00:39:49.823Z,95.50
2018-09-29T00:42:17.956Z,95.20
2018-09-29T00:44:46.108Z,94.80
2018-09-29T00:47:14.231Z,95.20
2018-09-29T00:49:42.379Z,94.90
2018-09-29T00:52:10.517Z,94.60
2018-09-29T00:54:38.653Z,94.20
2018-09-29T00:57:07.009Z,94.00
2018-09-29T00:59:35.143Z,93.90
2018-09-29T01:02:03.279Z,93.60
2018-09-29T01:04:31.430Z,93.30
2018-09-29T01:06:59.597Z,93.20
2018-09-29T01:09:27.730Z,93.10
2018-09-29T01:11:55.875Z,92.70
2018-09-29T01:14:24.010Z,92.70
2018-09-29T01:16:52.149Z,92.10
2018-09-29T01:19:20.339Z,92.00
2018-09-29T01:21:48.442Z,92.10
2018-09-29T01:24:16.613Z,92.20
2018-09-29T01:26:44.729Z,92.40
2018-09-29T01:29:12.869Z,91.80
2018-09-29T01:31:41.123Z,92.10
2018-09-29T01:34:09.307Z,92.30
2018-09-29T01:36:37.478Z,92.10
2018-09-29T01:39:07.438Z,92.10
2018-09-29T01:41:35.610Z,92.10
2018-09-29T01:44:03.757Z,91.90
2018-09-29T01:46:31.922Z,92.00
2018-09-29T01:49:00.066Z,91.80
2018-09-29T01:51:28.310Z,91.80
2018-09-29T01:53:56.466Z,91.80
2018-09-29T01:56:24.618Z,91.50
2018-09-29T01:58:52.787Z,91.80
2018-09-29T02:01:20.943Z,91.70
2018-09-29T02:03:49.081Z,91.80
2018-09-29T02:06:17.242Z,91.80
2018-09-29T02:08:45.415Z,91.50
2018-09-29T02:11:13.550Z,91.60
2018-09-29T02:13:41.682Z,92.20
2018-09-29T02:16:09.851Z,91.70
2018-09-29T02:18:38.011Z,91.80
2018-09-29T02:21:06.510Z,92.30
2018-09-29T02:23:34.654Z,91.90
2018-09-29T02:26:02.784Z,91.70
2018-09-29T02:28:30.934Z,91.90
2018-09-29T02:30:59.069Z,92.30
2018-09-29T02:33:27.206Z,92.50
2018-09-29T02:35:55.364Z,92.10
2018-09-29T02:38:23.494Z,92.20
2018-09-29T02:40:51.642Z,92.50
2018-09-29T02:43:19.946Z,92.50
2018-09-29T02:45:48.071Z,92.80
2018-09-29T02:48:16.231Z,93.10
2018-09-29T02:50:44.380Z,93.00
2018-09-29T02:53:12.513Z,93.00
2018-09-29T02:55:40.711Z,93.00
2018-09-29T02:58:08.875Z,93.00
2018-09-29T03:00:37.021Z,93.10
2018-09-29T03:03:05.160Z,93.20
2018-09-29T03:05:33.318Z,93.20
2018-09-29T03:08:01.487Z,93.10
2018-09-29T03:10:29.630Z,93.40
2018-09-29T03:12:57.806Z,93.50
2018-09-29T03:15:25.937Z,93.70
2018-09-29T03:17:54.102Z,93.60
2018-09-29T03:20:22.266Z,93.50
2018-09-29T03:22:50.434Z,93.70
2018-09-29T03:25:18.604Z,93.90
2018-09-29T03:27:46.742Z,93.80
2018-09-29T03:30:14.883Z,93.90
2018-09-29T03:32:43.039Z,93.90
2018-09-29T03:35:11.184Z,94.20
2018-09-29T03:37:39.330Z,94.20
2018-09-29T03:40:07.486Z,94.40
2018-09-29T03:42:35.686Z,94.10
2018-09-29T03:45:03.867Z,94.00
2018-09-29T03:47:32.016Z,94.30
2018-09-29T03:50:00.170Z,94.20
2018-09-29T03:52:28.348Z,94.40
2018-09-29T03:54:56.493Z,94.50
2018-09-29T03:57:24.642Z,94.50
2018-09-29T03:59:52.806Z,94.30
2018-09-29T04:02:20.975Z,94.40
2018-09-29T04:04:49.178Z,94.00
2018-09-29T04:07:17.330Z,93.90
2018-09-29T04:09:45.526Z,94.10
2018-09-29T04:12:13.665Z,94.10
2018-09-29T04:14:41.833Z,94.20
2018-09-29T04:17:09.984Z,94.00
2018-09-29T04:19:38.137Z,94.10
2018-09-29T04:22:06.487Z,94.20
2018-09-29T04:24:34.636Z,94.20
2018-09-29T04:27:02.783Z,94.10
2018-09-29T04:29:30.933Z,94.00
2018-09-29T04:31:59.082Z,94.10
2018-09-29T04:34:27.236Z,94.80
2018-09-29T04:36:55.383Z,94.40
2018-09-29T04:39:23.525Z,93.80
2018-09-29T04:41:51.682Z,93.80
2018-09-29T04:44:19.815Z,93.90
2018-09-29T04:46:47.953Z,93.40
2018-09-29T04:49:16.103Z,93.60
2018-09-29T04:51:44.221Z,93.60
2018-09-29T04:54:12.354Z,93.60
2018-09-29T04:56:40.508Z,93.90
2018-09-29T04:59:08.630Z,93.80
2018-09-29T05:01:36.778Z,93.80
2018-09-29T05:04:04.923Z,93.50
2018-09-29T05:06:33.067Z,93.30
2018-09-29T05:09:01.198Z,92.80
2018-09-29T05:11:29.343Z,92.80
2018-09-29T05:13:57.532Z,92.40
2018-09-29T05:16:25.634Z,92.40
2018-09-29T05:18:53.766Z,92.70
2018-09-29T05:21:21.906Z,92.20
2018-09-29T05:23:50.116Z,92.10
2018-09-29T05:26:18.237Z,92.10
2018-09-29T05:28:46.382Z,92.20
2018-09-29T05:31:15.532Z,91.80
2018-09-29T05:33:43.649Z,92.00
2018-09-29T05:36:11.820Z,91.70
2018-09-29T05:38:39.990Z,91.70
2018-09-29T05:41:08.153Z,91.40
2018-09-29T05:43:36.297Z,91.40
2018-09-29T05:46:04.472Z,91.40
2018-09-29T05:48:32.592Z,91.30
2018-09-29T05:51:00.749Z,91.30
2018-09-29T05:53:28.905Z,91.10
2018-09-29T05:55:57.061Z,91.30
2018-09-29T05:58:25.197Z,91.20
2018-09-29T06:00:53.370Z,91.00
2018-09-29T06:03:21.523Z,90.50
2018-09-29T06:05:49.676Z,90.70
2018-09-29T06:08:17.938Z,89.20
2018-09-29T06:10:46.073Z,89.60
2018-09-29T06:13:14.465Z,88.30
2018-09-29T06:15:42.558Z,88.50
2018-09-29T06:18:10.705Z,88.00
2018-09-29T06:20:38.902Z,87.80
2018-09-29T06:23:07.058Z,86.80
2018-09-29T06:25:35.215Z,86.10
2018-09-29T06:28:03.423Z,85.70
2018-09-29T06:30:31.540Z,85.40
2018-09-29T06:32:59.702Z,84.90
2018-09-29T06:35:27.866Z,83.10
2018-09-29T06:37:56.027Z,83.00
2018-09-29T06:40:24.201Z,81.60
2018-09-29T06:42:52.400Z,81.40
2018-09-29T06:45:20.546Z,81.00
2018-09-29T06:47:48.800Z,78.80
2018-09-29T06:50:16.893Z,77.90
2018-09-29T06:52:45.032Z,78.50
2018-09-29T06:55:13.202Z,77.30
2018-09-29T06:57:41.744Z,76.90
2018-09-29T07:00:10.050Z,75.10
2018-09-29T07:02:38.190Z,75.30
2018-09-29T07:05:06.448Z,74.80
2018-09-29T07:07:34.642Z,74.60
2018-09-29T07:10:02.819Z,75.60
2018-09-29T07:12:31.128Z,74.10
2018-09-29T07:14:59.318Z,75.30
2018-09-29T07:17:27.535Z,74.60
2018-09-29T07:19:55.858Z,74.30
2018-09-29T07:22:24.027Z,73.70
2018-09-29T07:24:52.279Z,72.20
2018-09-29T07:27:20.480Z,74.60
2018-09-29T07:29:48.677Z,74.10
2018-09-29T07:32:16.846Z,72.90
2018-09-29T07:34:45.026Z,72.30
2018-09-29T07:37:13.198Z,72.30
2018-09-29T07:39:41.400Z,72.30
2018-09-29T07:42:09.558Z,72.50
2018-09-29T07:44:37.714Z,72.90
2018-09-29T07:47:06.166Z,73.70
2018-09-29T07:49:34.347Z,71.10
2018-09-29T07:52:02.539Z,71.10
2018-09-29T07:54:30.734Z,70.20
2018-09-29T07:56:58.916Z,72.10
2018-09-29T07:59:27.282Z,70.80
2018-09-29T08:01:55.437Z,71.30
2018-09-29T08:04:23.630Z,69.10
2018-09-29T08:06:51.797Z,70.40
2018-09-29T08:09:19.994Z,69.30
2018-09-29T08:11:48.172Z,68.00
2018-09-29T08:14:16.315Z,68.30
2018-09-29T08:16:44.494Z,66.50
2018-09-29T08:19:12.660Z,68.30
2018-09-29T08:21:40.839Z,67.70
2018-09-29T08:24:09.041Z,67.30
2018-09-29T08:26:37.485Z,65.80
2018-09-29T08:29:05.670Z,66.30
2018-09-29T08:31:33.831Z,64.30
2018-09-29T08:34:02.033Z,63.70
2018-09-29T08:36:30.204Z,63.60
2018-09-29T08:38:58.366Z,62.20
2018-09-29T08:41:26.526Z,63.20
2018-09-29T08:43:54.678Z,64.00
2018-09-29T08:46:22.854Z,63.70
2018-09-29T08:48:51.002Z,61.50
2018-09-29T08:51:19.143Z,63.20
2018-09-29T08:53:47.373Z,62.90
2018-09-29T08:56:16.207Z,61.30
2018-09-29T08:58:51.173Z,63.30
2018-09-29T09:01:19.322Z,62.20
2018-09-29T09:03:47.568Z,62.00
2018-09-29T09:06:15.702Z,63.60
2018-09-29T09:08:43.901Z,61.00
2018-09-29T09:11:12.074Z,61.50
2018-09-29T09:13:40.236Z,62.80
2018-09-29T09:16:08.486Z,61.60
2018-09-29T09:18:36.637Z,62.00
2018-09-29T09:21:04.800Z,61.90
2018-09-29T09:23:33.313Z,62.00
2018-09-29T09:26:01.505Z,59.00
2018-09-29T09:28:29.663Z,59.80
2018-09-29T09:30:57.850Z,59.80
2018-09-29T09:33:25.991Z,60.00
2018-09-29T09:35:54.168Z,59.70
2018-09-29T09:38:22.322Z,58.10
2018-09-29T09:40:50.494Z,57.90
2018-09-29T09:43:20.037Z,58.90
2018-09-29T09:45:50.580Z,59.60
2018-09-29T09:48:18.739Z,59.90
2018-09-29T09:50:47.018Z,57.80
2018-09-29T09:53:15.161Z,57.70
2018-09-29T09:55:43.370Z,57.60
2018-09-29T09:58:11.601Z,58.40
2018-09-29T10:01:44.810Z,58.60
2018-09-29T10:04:12.953Z,58.50
2018-09-29T10:06:41.186Z,57.20
2018-09-29T10:09:11.054Z,57.50
2018-09-29T10:11:39.267Z,57.20
2018-09-29T10:14:07.462Z,57.40
2018-09-29T10:16:36.092Z,57.40
2018-09-29T10:19:04.671Z,56.80
2018-09-29T10:21:33.767Z,56.20
2018-09-29T10:24:02.243Z,56.20
2018-09-29T10:26:30.422Z,55.60
2018-09-29T10:28:58.562Z,55.80
2018-09-29T10:31:26.770Z,56.00
2018-09-29T10:33:54.907Z,56.20
2018-09-29T10:36:23.154Z,56.20
2018-09-29T10:38:51.602Z,56.30
2018-09-29T10:41:19.764Z,56.30
2018-09-29T10:43:47.915Z,56.30
2018-09-29T10:46:16.091Z,56.70
2018-09-29T10:48:44.463Z,56.50
2018-09-29T10:51:12.624Z,56.50
2018-09-29T10:53:40.922Z,56.50
2018-09-29T10:56:09.086Z,56.90
2018-09-29T10:58:37.254Z,56.30
2018-09-29T11:01:05.448Z,57.90
2018-09-29T11:03:33.798Z,56.80
2018-09-29T11:06:01.987Z,57.40
2018-09-29T11:08:30.141Z,57.00
2018-09-29T11:10:58.307Z,57.50
2018-09-29T11:13:26.578Z,57.70
2018-09-29T11:15:54.770Z,58.10
2018-09-29T11:18:22.992Z,57.70
2018-09-29T11:20:51.196Z,57.40
2018-09-29T11:23:19.330Z,59.40
2018-09-29T11:25:47.531Z,57.20
2018-09-29T11:28:15.744Z,57.50
2018-09-29T11:30:43.859Z,57.90
2018-09-29T11:33:12.005Z,55.80
2018-09-29T11:35:40.191Z,58.60
2018-09-29T11:38:08.355Z,57.80
2018-09-29T11:40:36.696Z,59.40
2018-09-29T11:43:04.818Z,56.50
2018-09-29T11:45:33.049Z,55.90
2018-09-29T11:48:01.199Z,58.10
2018-09-29T11:50:29.350Z,57.80
2018-09-29T11:52:57.777Z,55.80
2018-09-29T11:55:25.902Z,57.20
2018-09-29T11:57:54.678Z,57.50
2018-09-29T12:00:22.835Z,57.30
2018-09-29T12:02:51.016Z,56.90
2018-09-29T12:05:19.174Z,58.10
2018-09-29T12:07:47.355Z,57.40
2018-09-29T12:10:15.558Z,57.70
2018-09-29T12:12:43.727Z,56.90
2018-09-29T12:15:11.987Z,56.20
2018-09-29T12:17:40.158Z,56.80
2018-09-29T12:20:08.329Z,56.30
2018-09-29T12:22:36.513Z,56.90
2018-09-29T12:25:04.782Z,56.80
2018-09-29T12:27:32.986Z,56.30
2018-09-29T12:30:01.268Z,56.20
2018-09-29T12:32:29.302Z,55.00
2018-09-29T12:34:57.465Z,57.60
2018-09-29T12:37:25.633Z,56.80
2018-09-29T12:39:53.759Z,56.50
2018-09-29T12:42:21.930Z,55.50
2018-09-29T12:44:50.140Z,56.10
2018-09-29T12:47:18.247Z,55.30
2018-09-29T12:49:46.403Z,56.30
2018-09-29T12:52:14.551Z,54.60
2018-09-29T12:54:42.698Z,56.00
2018-09-29T12:57:10.842Z,54.60
2018-09-29T12:59:39.058Z,55.00
2018-09-29T13:02:07.214Z,55.50
2018-09-29T13:04:35.372Z,56.00
2018-09-29T13:07:03.553Z,55.90
2018-09-29T13:09:31.712Z,55.80
2018-09-29T13:12:00.467Z,55.10
2018-09-29T13:14:28.615Z,56.00
2018-09-29T13:16:56.839Z,55.90
2018-09-29T13:19:25.294Z,54.60
2018-09-29T13:21:53.456Z,55.90
2018-09-29T13:24:21.630Z,54.70
2018-09-29T13:26:49.774Z,54.60
2018-09-29T13:29:17.927Z,55.10
2018-09-29T13:31:46.112Z,56.20
2018-09-29T13:34:14.266Z,53.80
2018-09-29T13:36:42.435Z,54.40
2018-09-29T13:39:10.610Z,53.50
2018-09-29T13:41:38.782Z,53.70
2018-09-29T13:44:06.971Z,55.00
2018-09-29T13:46:35.114Z,54.70
2018-09-29T13:49:03.274Z,54.50
2018-09-29T13:51:31.714Z,54.30
2018-09-29T13:53:59.870Z,53.90
2018-09-29T13:56:28.014Z,54.80
2018-09-29T13:58:56.180Z,54.90
2018-09-29T14:01:24.334Z,53.40
2018-09-29T14:03:52.500Z,53.30
2018-09-29T14:06:20.646Z,54.50
2018-09-29T14:08:48.807Z,54.00
2018-09-29T14:11:16.931Z,55.60
2018-09-29T14:13:45.090Z,53.20
2018-09-29T14:16:13.258Z,53.50
2018-09-29T14:18:41.440Z,54.20
2018-09-29T14:21:09.678Z,53.90
2018-09-29T14:23:37.872Z,52.60
2018-09-29T14:26:06.054Z,53.20
2018-09-29T14:28:34.236Z,51.60
2018-09-29T14:31:02.410Z,52.10
2018-09-29T14:33:30.572Z,53.20
2018-09-29T14:35:58.743Z,53.00
2018-09-29T14:38:26.897Z,52.80
2018-09-29T14:40:55.082Z,51.00
2018-09-29T14:43:23.253Z,51.70
2018-09-29T14:45:51.402Z,52.20
2018-09-29T14:48:19.570Z,51.60
2018-09-29T14:50:47.735Z,52.30
2018-09-29T14:53:15.906Z,51.80
2018-09-29T14:55:44.073Z,51.90
2018-09-29T14:58:12.241Z,52.50
2018-09-29T15:00:40.431Z,52.50
2018-09-29T15:03:08.567Z,52.20
2018-09-29T15:05:36.775Z,53.20
2018-09-29T15:08:04.950Z,53.70
2018-09-29T15:10:33.156Z,53.90
2018-09-29T15:13:01.294Z,54.80
2018-09-29T15:15:29.447Z,54.90
2018-09-29T15:17:57.617Z,54.90
2018-09-29T15:20:25.858Z,54.60
2018-09-29T15:22:53.987Z,55.10
2018-09-29T15:25:22.174Z,54.80
2018-09-29T15:27:50.328Z,54.30
2018-09-29T15:30:18.519Z,55.10
2018-09-29T15:32:46.658Z,54.30
2018-09-29T15:35:14.811Z,55.20
2018-09-29T15:37:42.947Z,55.50
2018-09-29T15:40:11.134Z,55.00
2018-09-29T15:42:39.385Z,54.80
2018-09-29T15:45:08.087Z,54.90
2018-09-29T15:47:36.166Z,55.30
2018-09-29T15:50:04.338Z,55.80
2018-09-29T15:52:32.482Z,54.80
2018-09-29T15:55:00.707Z,55.70
2018-09-29T15:57:28.837Z,56.10
2018-09-29T15:59:57.002Z,55.90
2018-09-29T16:02:25.264Z,56.80
2018-09-29T16:04:53.380Z,56.90
2018-09-29T16:07:21.566Z,57.30
2018-09-29T16:09:49.755Z,57.40
2018-09-29T16:12:17.913Z,57.90
2018-09-29T16:14:46.095Z,57.00
2018-09-29T16:17:14.286Z,56.90
2018-09-29T16:19:42.432Z,57.30
2018-09-29T16:22:10.614Z,57.70
2018-09-29T16:24:38.990Z,58.50
2018-09-29T16:27:07.285Z,58.90
2018-09-29T16:29:35.478Z,58.30
2018-09-29T16:32:03.722Z,58.80
2018-09-29T16:34:31.804Z,59.40
2018-09-29T16:36:59.958Z,59.30
2018-09-29T16:39:28.127Z,59.60
2018-09-29T16:41:56.322Z,60.00
2018-09-29T16:44:24.547Z,60.00
2018-09-29T16:46:52.730Z,60.40
2018-09-29T16:49:21.016Z,60.00
2018-09-29T16:51:49.194Z,62.30
2018-09-29T16:54:17.393Z,61.00
2018-09-29T16:56:45.538Z,61.50
2018-09-29T16:59:13.690Z,62.40
2018-09-29T17:01:41.888Z,62.40
2018-09-29T17:04:10.135Z,63.00
2018-09-29T17:06:38.253Z,63.10
2018-09-29T17:09:08.741Z,63.20
2018-09-29T17:11:37.808Z,64.10
2018-09-29T17:14:05.998Z,65.00
2018-09-29T17:16:34.210Z,65.20
2018-09-29T17:19:02.368Z,65.70
2018-09-29T17:21:30.639Z,65.50
2018-09-29T17:23:58.818Z,66.40
2018-09-29T17:26:26.977Z,65.90
2018-09-29T17:28:56.897Z,65.60
2018-09-29T17:31:25.215Z,66.20
2018-09-29T17:33:53.381Z,67.20
2018-09-29T17:36:21.562Z,66.60
2018-09-29T17:38:49.904Z,66.70
2018-09-29T17:41:18.041Z,68.40
2018-09-29T17:43:46.187Z,67.90
2018-09-29T17:46:14.339Z,67.70
2018-09-29T17:48:42.491Z,67.90
2018-09-29T17:51:10.658Z,66.90
2018-09-29T17:53:38.813Z,66.70
2018-09-29T17:56:07.138Z,67.30
2018-09-29T17:58:35.312Z,67.20
2018-09-29T18:01:03.486Z,68.60
2018-09-29T18:03:31.750Z,68.10
2018-09-29T18:05:59.950Z,67.50
2018-09-29T18:08:28.149Z,68.20
2018-09-29T18:10:56.276Z,68.60
2018-09-29T18:13:24.417Z,68.90
2018-09-29T18:15:52.620Z,69.30
2018-09-29T18:18:20.771Z,69.70
2018-09-29T18:20:48.966Z,70.10
2018-09-29T18:23:17.153Z,69.80
2018-09-29T18:25:45.334Z,68.90
2018-09-29T18:28:13.678Z,69.20
2018-09-29T18:30:41.750Z,69.50
2018-09-29T18:33:09.958Z,69.30
2018-09-29T18:35:38.319Z,69.70
2018-09-29T18:38:06.610Z,69.00
2018-09-29T18:40:34.855Z,68.80
2018-09-29T18:43:03.076Z,69.10
2018-09-29T18:45:31.316Z,69.30
2018-09-29T18:47:59.421Z,69.80
2018-09-29T18:50:27.587Z,69.40
2018-09-29T18:52:55.808Z,70.10
2018-09-29T18:55:24.059Z,70.60
2018-09-29T18:57:52.280Z,72.00
2018-09-29T19:00:20.448Z,70.80
2018-09-29T19:02:48.683Z,71.90
2018-09-29T19:05:16.873Z,72.10
2018-09-29T19:07:45.061Z,72.10
2018-09-29T19:10:13.218Z,72.20
2018-09-29T19:12:41.424Z,72.40
2018-09-29T19:15:09.627Z,73.20
2018-09-29T19:17:37.801Z,73.60
2018-09-29T19:20:06.004Z,73.90
2018-09-29T19:22:34.290Z,74.40
2018-09-29T19:25:02.550Z,75.00
2018-09-29T19:27:30.727Z,75.20
2018-09-29T19:29:58.907Z,75.20
2018-09-29T19:32:27.059Z,74.80
2018-09-29T19:34:55.286Z,75.10
2018-09-29T19:37:23.482Z,75.40
2018-09-29T19:39:51.666Z,76.40
2018-09-29T19:42:19.863Z,76.60
2018-09-29T19:44:48.038Z,76.70
2018-09-29T19:47:16.215Z,75.90
2018-09-29T19:49:44.406Z,77.20
2018-09-29T19:52:12.652Z,77.20
2018-09-29T19:54:40.907Z,77.50
2018-09-29T19:57:09.233Z,76.60
2018-09-29T19:59:37.451Z,76.80
2018-09-29T20:02:05.730Z,77.30
2018-09-29T20:04:33.985Z,76.70
2018-09-29T20:07:02.213Z,76.90
2018-09-29T20:09:30.446Z,76.90
2018-09-29T20:11:58.680Z,77.50
2018-09-29T20:14:26.884Z,76.90
2018-09-29T20:16:55.092Z,77.70
2018-09-29T20:19:23.726Z,77.70
2018-09-29T20:21:51.940Z,78.30
2018-09-29T20:24:27.021Z,78.30
2018-09-29T20:26:55.187Z,78.90
2018-09-29T20:29:23.386Z,79.00
2018-09-29T20:31:51.679Z,79.10
2018-09-29T20:34:19.868Z,79.70
2018-09-29T20:36:48.101Z,80.00
2018-09-29T20:39:16.314Z,80.40
2018-09-29T20:41:44.524Z,80.40
2018-09-29T20:44:12.761Z,80.80
2018-09-29T20:46:40.966Z,80.80
2018-09-29T20:49:09.408Z,82.10
2018-09-29T20:51:38.080Z,81.50
2018-09-29T20:54:06.313Z,82.10
2018-09-29T20:56:34.524Z,82.20
2018-09-29T20:59:02.914Z,82.50
2018-09-29T21:01:31.132Z,83.00
2018-09-29T21:03:59.753Z,83.30
2018-09-29T21:06:27.975Z,83.70
2018-09-29T21:08:56.172Z,84.00
2018-09-29T21:11:24.455Z,83.70
2018-09-29T21:13:52.762Z,83.40
2018-09-29T21:16:20.958Z,83.70
2018-09-29T21:18:49.173Z,83.90
2018-09-29T21:21:17.385Z,84.60
2018-09-29T21:23:45.667Z,85.10
2018-09-29T21:26:13.858Z,85.10
2018-09-29T21:28:42.099Z,85.20
2018-09-29T21:31:10.327Z,84.90
2018-09-29T21:33:38.573Z,86.50
2018-09-29T21:36:06.802Z,87.30
2018-09-29T21:38:34.999Z,87.70
2018-09-29T21:41:03.240Z,87.70
2018-09-29T21:43:31.448Z,87.90
2018-09-29T21:45:59.630Z,87.50
2018-09-29T21:48:27.851Z,88.00
2018-09-29T21:50:56.073Z,88.00
2018-09-29T21:53:24.322Z,88.30
2018-09-29T21:55:52.540Z,88.60
2018-09-29T21:58:20.702Z,88.60
2018-09-29T22:00:48.879Z,88.80
2018-09-29T22:03:17.055Z,88.70
2018-09-29T22:05:45.929Z,88.80
2018-09-29T22:08:14.408Z,89.40
2018-09-29T22:10:42.887Z,90.00
2018-09-29T22:13:11.079Z,90.30
2018-09-29T22:15:39.358Z,90.40
2018-09-29T22:18:07.590Z,90.30
2018-09-29T22:20:35.825Z,90.40
2018-09-29T22:23:04.001Z,90.40
2018-09-29T22:25:32.162Z,90.60
2018-09-29T22:28:00.345Z,90.70
2018-09-29T22:30:28.522Z,90.80
2018-09-29T22:32:56.758Z,90.90
2018-09-29T22:35:24.933Z,91.00
2018-09-29T22:37:53.192Z,90.80
2018-09-29T22:40:21.364Z,91.10
2018-09-29T22:42:49.538Z,91.10
2018-09-29T22:45:17.742Z,91.20
2018-09-29T22:47:46.019Z,91.40
2018-09-29T22:50:14.339Z,91.50
2018-09-29T22:52:42.507Z,91.80
2018-09-29T22:55:10.671Z,91.80
2018-09-29T22:57:38.848Z,92.10
2018-09-29T23:00:07.290Z,92.30
2018-09-29T23:02:35.466Z,92.30
2018-09-29T23:05:03.648Z,92.50
2018-09-29T23:07:31.836Z,92.60
2018-09-29T23:10:00.002Z,92.70
2018-09-29T23:12:28.175Z,92.70
2018-09-29T23:14:56.339Z,92.80
2018-09-29T23:17:24.518Z,93.00
2018-09-29T23:19:52.705Z,93.10
2018-09-29T23:22:20.880Z,93.10
2018-09-29T23:24:49.043Z,93.10
2018-09-29T23:27:17.198Z,93.20
2018-09-29T23:29:45.452Z,93.30
2018-09-29T23:32:13.618Z,93.40
2018-09-29T23:34:41.795Z,93.40
2018-09-29T23:37:09.963Z,93.60
2018-09-29T23:39:38.152Z,93.90
2018-09-29T23:42:06.321Z,94.20
2018-09-29T23:44:34.599Z,94.40
2018-09-29T23:47:02.823Z,94.60
2018-09-29T23:49:31.034Z,94.70
2018-09-29T23:51:59.223Z,94.80
2018-09-29T23:54:27.477Z,95.00
2018-09-29T23:56:55.625Z,95.10
2018-09-29T23:59:23.803Z,95.20
